createdAt,value
2024-03-05T00:01:42.187Z,99728.34
2024-03-05T00:04:10.178Z,99735.97
2024-03-05T00:06:38.972Z,99739.31
2024-03-05T00:09:06.691Z,99737.16
2024-03-05T00:11:34.578Z,99742.47
2024-03-05T00:14:02.282Z,99733.03
2024-03-05T00:16:29.816Z,99738.34
2024-03-05T00:18:57.596Z,99736.81
2024-03-05T00:21:25.164Z,99736.22
2024-03-05T00:23:52.639Z,99739.25
2024-03-05T00:26:22.655Z,99747.03
2024-03-05T00:28:50.659Z,99737.56
2024-03-05T00:31:18.456Z,99749.75
2024-03-05T00:33:47.763Z,99743.69
2024-03-05T00:36:15.334Z,99736.47
2024-03-05T00:38:43.251Z,99742.50
2024-03-05T00:41:10.965Z,99730.31
2024-03-05T00:43:38.570Z,99736.31
2024-03-05T00:46:07.156Z,99733.09
2024-03-05T00:48:35.120Z,99736.31
2024-03-05T00:51:03.557Z,99731.84
2024-03-05T00:53:31.462Z,99737.19
2024-03-05T00:55:59.266Z,99734.69
2024-03-05T00:58:27.424Z,99735.63
2024-03-05T01:00:55.486Z,99728.06
2024-03-05T01:03:23.262Z,99732.28
2024-03-05T01:05:50.889Z,99732.34
2024-03-05T01:08:18.430Z,99735.81
2024-03-05T01:10:47.086Z,99734.87
2024-03-05T01:13:15.527Z,99731.19
2024-03-05T01:15:43.246Z,99726.63
2024-03-05T01:18:11.055Z,99731.59
2024-03-05T01:20:42.576Z,99732.41
2024-03-05T01:23:13.169Z,99731.75
2024-03-05T01:25:40.963Z,99729.25
2024-03-05T01:28:08.990Z,99733.50
2024-03-05T01:30:36.547Z,99731.28
2024-03-05T01:33:06.853Z,99727.34
2024-03-05T01:35:34.547Z,99724.88
2024-03-05T01:38:02.046Z,99726.91
2024-03-05T01:40:29.827Z,99730.22
2024-03-05T01:42:58.878Z,99730.84
2024-03-05T01:45:27.025Z,99727.41
2024-03-05T01:47:54.940Z,99732.69
2024-03-05T01:50:23.759Z,99739.78
2024-03-05T01:52:51.391Z,99738.44
2024-03-05T01:55:19.340Z,99736.66
2024-03-05T01:57:48.707Z,99730.78
2024-03-05T02:00:17.207Z,99733.34
2024-03-05T02:02:45.496Z,99732.22
2024-03-05T02:05:13.834Z,99729.38
2024-03-05T02:07:41.460Z,99726.75
2024-03-05T02:10:10.304Z,99738.94
2024-03-05T02:12:38.145Z,99735.53
2024-03-05T02:15:06.591Z,99739.44
2024-03-05T02:17:34.500Z,99739.59
2024-03-05T02:20:02.358Z,99749.97
2024-03-05T02:22:29.870Z,99751.31
2024-03-05T02:25:00.123Z,99750.56
2024-03-05T02:27:34.150Z,99760.66
2024-03-05T02:30:04.056Z,99760.66
2024-03-05T02:32:31.991Z,99760.66
2024-03-05T02:34:59.840Z,99764.16
2024-03-05T02:37:27.891Z,99765.03
2024-03-05T02:39:55.292Z,99766.94
2024-03-05T02:42:22.733Z,99768.62
2024-03-05T02:44:50.447Z,99769.34
2024-03-05T02:47:17.941Z,99772.22
2024-03-05T02:49:45.421Z,99785.13
2024-03-05T02:52:13.311Z,99773.19
2024-03-05T02:54:40.771Z,99782.63
2024-03-05T02:57:08.510Z,99777.25
2024-03-05T02:59:37.281Z,99772.66
2024-03-05T03:02:04.919Z,99776.94
2024-03-05T03:04:32.380Z,99768.09
2024-03-05T03:07:00.154Z,99775.94
2024-03-05T03:09:28.121Z,99775.81
2024-03-05T03:11:56.229Z,99777.41
2024-03-05T03:14:24.032Z,99771.84
2024-03-05T03:16:51.575Z,99775.81
2024-03-05T03:19:19.081Z,99778.94
2024-03-05T03:21:47.061Z,99778.88
2024-03-05T03:24:14.660Z,99786.81
2024-03-05T03:26:42.148Z,99786.28
2024-03-05T03:29:12.625Z,99790.50
2024-03-05T03:31:49.218Z,99787.84
2024-03-05T03:34:17.427Z,99800.75
2024-03-05T03:36:45.473Z,99797.22
2024-03-05T03:39:12.918Z,99801.69
2024-03-05T03:41:40.786Z,99795.31
2024-03-05T03:44:08.618Z,99803.81
2024-03-05T03:46:36.165Z,99800.56
2024-03-05T03:49:05.944Z,99803.69
2024-03-05T03:51:34.046Z,99800.66
2024-03-05T03:54:01.421Z,99804.81
2024-03-05T03:56:29.307Z,99809.75
2024-03-05T03:58:57.292Z,99805.25
2024-03-05T04:01:25.337Z,99802.66
2024-03-05T04:03:53.291Z,99804.34
2024-03-05T04:06:20.731Z,99813.97
2024-03-05T04:08:48.244Z,99811.37
2024-03-05T04:11:16.095Z,99813.09
2024-03-05T04:13:44.979Z,99817.28
2024-03-05T04:16:13.575Z,99810.53
2024-03-05T04:18:41.384Z,99813.75
2024-03-05T04:21:08.836Z,99814.59
2024-03-05T04:23:36.293Z,99812.78
2024-03-05T04:26:09.646Z,99821.53
2024-03-05T04:28:49.960Z,99819.19
2024-03-05T04:31:18.816Z,99820.84
2024-03-05T04:33:49.142Z,99827.81
2024-03-05T04:36:17.092Z,99826.00
2024-03-05T04:38:45.231Z,99824.25
2024-03-05T04:41:14.255Z,99819.94
2024-03-05T04:43:44.575Z,99829.50
2024-03-05T04:46:12.512Z,99827.75
2024-03-05T04:48:40.040Z,99839.00
2024-03-05T04:51:10.904Z,99831.13
2024-03-05T04:53:39.513Z,99831.88
2024-03-05T04:56:07.776Z,99833.87
2024-03-05T04:58:36.714Z,99830.03
2024-03-05T05:01:05.242Z,99834.25
2024-03-05T05:03:32.687Z,99836.16
2024-03-05T05:06:01.420Z,99838.56
2024-03-05T05:08:29.334Z,99840.28
2024-03-05T05:10:56.887Z,99841.94
2024-03-05T05:13:24.390Z,99835.16
2024-03-05T05:15:52.144Z,99840.22
2024-03-05T05:18:20.207Z,99844.44
2024-03-05T05:20:51.890Z,99842.88
2024-03-05T05:23:19.534Z,99848.75
2024-03-05T05:25:47.031Z,99845.19
2024-03-05T05:28:14.836Z,99853.69
2024-03-05T05:30:42.596Z,99853.53
2024-03-05T05:33:10.180Z,99849.88
2024-03-05T05:35:38.582Z,99858.38
2024-03-05T05:38:10.183Z,99857.28
2024-03-05T05:40:37.675Z,99863.13
2024-03-05T05:43:05.290Z,99862.41
2024-03-05T05:45:32.994Z,99863.75
2024-03-05T05:48:01.029Z,99864.31
2024-03-05T05:50:32.567Z,99860.03
2024-03-05T05:53:02.860Z,99867.53
2024-03-05T05:55:30.499Z,99866.47
2024-03-05T05:57:58.444Z,99870.31
2024-03-05T06:00:34.928Z,99876.31
2024-03-05T06:03:09.918Z,99881.22
2024-03-05T06:05:39.217Z,99881.38
2024-03-05T06:08:13.484Z,99888.16
2024-03-05T06:10:44.512Z,99890.75
2024-03-05T06:13:12.535Z,99892.72
2024-03-05T06:15:40.181Z,99888.03
2024-03-05T06:18:07.907Z,99886.19
2024-03-05T06:20:35.799Z,99885.19
2024-03-05T06:23:04.284Z,99886.31
2024-03-05T06:25:32.093Z,99893.81
2024-03-05T06:28:00.435Z,99901.41
2024-03-05T06:30:27.967Z,99896.75
2024-03-05T06:32:55.793Z,99899.28
2024-03-05T06:35:25.028Z,99899.19
2024-03-05T06:37:55.036Z,99901.69
2024-03-05T06:40:25.255Z,99902.47
2024-03-05T06:42:54.006Z,99901.37
2024-03-05T06:45:29.303Z,99906.81
2024-03-05T06:48:10.983Z,99901.25
2024-03-05T06:50:44.238Z,99910.37
2024-03-05T06:53:31.079Z,99901.09
2024-03-05T06:56:17.981Z,99909.56
2024-03-05T06:58:47.176Z,99911.97
2024-03-05T07:01:16.140Z,99906.56
2024-03-05T07:03:44.318Z,99905.28
2024-03-05T07:06:14.273Z,99912.53
2024-03-05T07:08:44.118Z,99914.34
2024-03-05T07:11:12.858Z,99907.03
2024-03-05T07:13:44.864Z,99903.94
2024-03-05T07:16:17.736Z,99911.09
2024-03-05T07:18:56.056Z,99905.34
2024-03-05T07:21:25.651Z,99905.16
2024-03-05T07:23:55.249Z,99904.69
2024-03-05T07:26:24.539Z,99906.88
2024-03-05T07:28:53.108Z,99909.66
2024-03-05T07:31:20.915Z,99914.59
2024-03-05T07:33:52.771Z,99914.38
2024-03-05T07:36:22.061Z,99912.97
2024-03-05T07:38:49.812Z,99911.63
2024-03-05T07:41:26.552Z,99919.84
2024-03-05T07:44:02.250Z,99915.03
2024-03-05T07:46:30.990Z,99920.22
2024-03-05T07:48:58.766Z,99928.34
2024-03-05T07:51:40.485Z,99935.16
2024-03-05T07:54:12.421Z,99939.94
2024-03-05T07:56:40.782Z,99934.63
2024-03-05T07:59:08.302Z,99934.06
2024-03-05T08:01:35.818Z,99937.00
2024-03-05T08:04:05.260Z,99942.22
2024-03-05T08:06:32.898Z,99932.81
2024-03-05T08:09:00.402Z,99928.84
2024-03-05T08:11:28.297Z,99937.28
2024-03-05T08:13:55.867Z,99932.37
2024-03-05T08:16:23.532Z,99939.91
2024-03-05T08:18:51.716Z,99943.56
2024-03-05T08:21:19.146Z,99941.94
2024-03-05T08:23:46.608Z,99945.88
2024-03-05T08:26:15.176Z,99943.75
2024-03-05T08:28:42.713Z,99946.72
2024-03-05T08:31:11.506Z,99950.94
2024-03-05T08:33:39.333Z,99946.63
2024-03-05T08:36:07.952Z,99950.34
2024-03-05T08:38:36.626Z,99953.63
2024-03-05T08:41:04.584Z,99950.09
2024-03-05T08:43:32.579Z,99952.47
2024-03-05T08:46:00.132Z,99952.97
2024-03-05T08:48:29.756Z,99961.63
2024-03-05T08:50:59.724Z,99959.09
2024-03-05T08:53:27.312Z,99951.19
2024-03-05T08:55:55.144Z,99957.38
2024-03-05T08:58:22.721Z,99961.22
2024-03-05T09:00:51.851Z,99968.50
2024-03-05T09:03:19.663Z,99975.75
2024-03-05T09:05:48.433Z,99973.59
2024-03-05T09:08:16.090Z,99976.28
2024-03-05T09:10:45.946Z,99974.97
2024-03-05T09:13:13.599Z,99978.34
2024-03-05T09:15:44.054Z,99973.41
2024-03-05T09:18:15.666Z,99968.25
2024-03-05T09:20:44.283Z,99970.47
2024-03-05T09:23:12.426Z,99972.38
2024-03-05T09:25:43.091Z,99973.22
2024-03-05T09:28:11.681Z,99971.84
2024-03-05T09:30:39.503Z,99978.63
2024-03-05T09:33:10.662Z,99982.53
2024-03-05T09:35:40.111Z,99979.66
2024-03-05T09:38:08.549Z,99979.66
2024-03-05T09:40:36.360Z,99981.75
2024-03-05T09:43:05.263Z,99983.69
2024-03-05T09:45:37.550Z,99979.41
2024-03-05T09:48:09.912Z,99978.25
2024-03-05T09:50:38.286Z,99990.66
2024-03-05T09:53:06.525Z,99993.28
2024-03-05T09:55:34.722Z,99984.06
2024-03-05T09:58:05.492Z,99989.62
2024-03-05T10:00:35.750Z,99986.00
2024-03-05T10:03:04.626Z,99992.50
2024-03-05T10:05:32.089Z,99997.41
2024-03-05T10:07:59.638Z,99987.06
2024-03-05T10:10:32.094Z,99984.72
2024-03-05T10:13:02.579Z,99988.97
2024-03-05T10:15:30.452Z,99994.53
2024-03-05T10:17:58.627Z,99991.19
2024-03-05T10:20:29.574Z,99990.22
2024-03-05T10:23:02.430Z,99984.63
2024-03-05T10:25:31.377Z,99991.00
2024-03-05T10:28:00.759Z,99989.47
2024-03-05T10:30:33.934Z,99989.47
2024-03-05T10:33:03.800Z,99988.75
2024-03-05T10:35:36.015Z,99981.84
2024-03-05T10:38:07.141Z,99986.41
2024-03-05T10:40:38.665Z,99979.94
2024-03-05T10:43:08.053Z,99980.25
2024-03-05T10:45:42.152Z,99985.53
2024-03-05T10:48:11.952Z,99976.59
2024-03-05T10:50:41.672Z,99976.88
2024-03-05T10:53:11.449Z,99973.31
2024-03-05T10:55:39.783Z,99974.09
2024-03-05T11:00:49.366Z,99971.31
2024-03-05T11:03:20.119Z,99966.94
2024-03-05T11:05:53.262Z,99967.31
2024-03-05T11:08:22.413Z,99963.78
2024-03-05T11:10:58.543Z,99957.00
2024-03-05T11:13:27.576Z,99959.34
2024-03-05T11:15:56.247Z,99960.69
2024-03-05T11:18:34.719Z,99962.22
2024-03-05T11:21:11.110Z,99959.50
2024-03-05T11:23:43.280Z,99968.59
2024-03-05T11:26:24.159Z,99957.56
2024-03-05T11:29:18.851Z,99960.19
2024-03-05T11:31:47.734Z,99958.31
2024-03-05T11:34:19.113Z,99958.19
2024-03-05T11:37:33.948Z,99952.84
2024-03-05T11:40:11.667Z,99956.84
2024-03-05T11:42:45.583Z,99954.13
2024-03-05T11:45:52.921Z,99953.59
2024-03-05T11:48:21.835Z,99950.00
2024-03-05T11:50:53.414Z,99954.91
2024-03-05T11:53:21.205Z,99944.47
2024-03-05T11:55:53.444Z,99940.94
2024-03-05T11:58:25.030Z,99940.28
2024-03-05T12:01:02.085Z,99943.38
2024-03-05T12:03:33.179Z,99952.91
2024-03-05T12:06:01.523Z,99942.97
2024-03-05T12:08:29.532Z,99944.72
2024-03-05T12:11:02.705Z,99949.16
2024-03-05T12:13:32.440Z,99949.34
2024-03-05T12:16:15.212Z,99944.34
2024-03-05T12:18:43.362Z,99952.06
2024-03-05T12:21:11.804Z,99951.56
2024-03-05T12:23:43.328Z,99946.75
2024-03-05T12:26:13.017Z,99960.56
2024-03-05T12:28:41.532Z,99949.28
2024-03-05T12:31:10.442Z,99950.28
2024-03-05T12:33:38.404Z,99942.38
2024-03-05T12:36:06.671Z,99943.50
2024-03-05T12:38:34.235Z,99947.72
2024-03-05T12:41:02.367Z,99949.50
2024-03-05T12:43:30.645Z,99945.06
2024-03-05T12:46:04.069Z,99947.16
2024-03-05T12:48:38.384Z,99948.06
2024-03-05T12:51:06.255Z,99959.75
2024-03-05T12:53:34.344Z,99961.41
2024-03-05T12:56:03.325Z,99958.56
2024-03-05T12:58:44.004Z,99952.84
2024-03-05T13:01:16.242Z,99951.97
2024-03-05T13:03:44.724Z,99946.34
2024-03-05T13:06:15.451Z,99951.41
2024-03-05T13:08:48.752Z,99947.16
2024-03-05T13:11:17.097Z,99951.69
2024-03-05T13:13:44.644Z,99952.16
2024-03-05T13:16:12.446Z,99953.38
2024-03-05T13:18:40.303Z,99953.84
2024-03-05T13:21:07.843Z,99945.00
2024-03-05T13:23:36.074Z,99949.25
2024-03-05T13:26:04.014Z,99945.69
2024-03-05T13:28:31.761Z,99946.59
2024-03-05T13:31:01.707Z,99943.62
2024-03-05T13:33:29.783Z,99948.69
2024-03-05T13:35:57.449Z,99946.56
2024-03-05T13:38:25.450Z,99938.75
2024-03-05T13:40:53.807Z,99940.81
2024-03-05T13:43:25.619Z,99940.91
2024-03-05T13:45:53.782Z,99942.63
2024-03-05T13:48:21.270Z,99946.50
2024-03-05T13:50:54.865Z,99945.88
2024-03-05T13:53:23.295Z,99936.47
2024-03-05T13:55:57.313Z,99949.75
2024-03-05T13:58:25.517Z,99939.78
2024-03-05T14:00:53.531Z,99939.91
2024-03-05T14:03:21.459Z,99943.91
2024-03-05T14:05:48.990Z,99939.69
2024-03-05T14:08:18.105Z,99945.34
2024-03-05T14:10:45.885Z,99953.44
2024-03-05T14:13:18.979Z,99950.03
2024-03-05T14:15:49.930Z,99953.19
2024-03-05T14:18:17.866Z,99947.87
2024-03-05T14:20:45.673Z,99949.81
2024-03-05T14:23:16.134Z,99950.03
2024-03-05T14:25:45.058Z,99956.28
2024-03-05T14:28:13.882Z,99955.75
2024-03-05T14:30:41.763Z,99954.59
2024-03-05T14:33:10.545Z,99965.81
2024-03-05T14:35:38.678Z,99960.66
2024-03-05T14:38:06.536Z,99960.03
2024-03-05T14:40:34.119Z,99968.84
2024-03-05T14:43:05.108Z,99967.62
2024-03-05T14:45:32.734Z,99969.16
2024-03-05T14:48:00.650Z,99970.06
2024-03-05T14:50:28.555Z,99965.13
2024-03-05T14:52:57.131Z,99979.09
2024-03-05T14:55:26.613Z,99979.47
2024-03-05T14:57:55.393Z,99979.47
2024-03-05T15:00:25.796Z,99983.53
2024-03-05T15:02:53.977Z,99992.19
2024-03-05T15:05:23.352Z,99982.12
2024-03-05T15:07:51.351Z,99987.88
2024-03-05T15:10:20.439Z,99991.22
2024-03-05T15:12:52.331Z,99991.34
2024-03-05T15:15:20.812Z,99991.03
2024-03-05T15:17:51.671Z,100005.22
2024-03-05T15:20:19.740Z,100007.38
2024-03-05T15:22:50.035Z,100002.16
2024-03-05T15:25:21.652Z,100018.06
2024-03-05T15:28:00.873Z,100011.72
2024-03-05T15:30:34.922Z,100023.47
2024-03-05T15:33:03.644Z,100028.31
2024-03-05T15:35:31.962Z,100023.44
2024-03-05T15:38:00.195Z,100040.03
2024-03-05T15:40:28.317Z,100037.06
2024-03-05T15:42:57.663Z,100043.16
2024-03-05T15:45:29.788Z,100042.47
2024-03-05T15:47:59.715Z,100050.37
2024-03-05T15:50:31.084Z,100049.94
2024-03-05T15:53:05.038Z,100051.63
2024-03-05T15:55:39.735Z,100053.50
2024-03-05T15:58:07.843Z,100048.31
2024-03-05T16:00:37.106Z,100053.91
2024-03-05T16:03:09.503Z,100048.06
2024-03-05T16:05:47.299Z,100063.87
2024-03-05T16:08:25.459Z,100058.31
2024-03-05T16:10:54.852Z,100056.25
2024-03-05T16:13:23.193Z,100066.03
2024-03-05T16:15:51.666Z,100074.37
2024-03-05T16:18:20.292Z,100068.66
2024-03-05T16:20:49.068Z,100080.81
2024-03-05T16:23:17.114Z,100082.78
2024-03-05T16:25:44.820Z,100082.66
2024-03-05T16:28:15.016Z,100082.66
2024-03-05T16:30:43.662Z,100093.69
2024-03-05T16:33:11.931Z,100086.06
2024-03-05T16:35:39.502Z,100090.50
2024-03-05T16:38:08.547Z,100095.59
2024-03-05T16:40:37.701Z,100098.63
2024-03-05T16:43:06.796Z,100097.31
2024-03-05T16:45:36.546Z,100103.22
2024-03-05T16:48:09.842Z,100118.37
2024-03-05T16:50:40.280Z,100108.78
2024-03-05T16:53:10.041Z,100119.44
2024-03-05T16:55:38.942Z,100117.91
2024-03-05T16:58:12.194Z,100119.44
2024-03-05T17:00:48.094Z,100119.88
2024-03-05T17:03:16.252Z,100111.72
2024-03-05T17:05:47.761Z,100119.47
2024-03-05T17:08:20.527Z,100119.06
2024-03-05T17:10:49.408Z,100123.47
2024-03-05T17:13:22.673Z,100115.75
2024-03-05T17:16:05.020Z,100122.47
2024-03-05T17:18:33.338Z,100122.81
2024-03-05T17:21:01.480Z,100121.78
2024-03-05T17:23:30.513Z,100131.31
2024-03-05T17:25:58.858Z,100120.69
2024-03-05T17:28:28.142Z,100130.69
2024-03-05T17:30:57.471Z,100128.25
2024-03-05T17:33:26.172Z,100126.62
2024-03-05T17:35:58.182Z,100134.66
2024-03-05T17:38:30.270Z,100132.13
2024-03-05T17:41:01.144Z,100126.59
2024-03-05T17:43:28.937Z,100136.91
2024-03-05T17:45:56.610Z,100136.41
2024-03-05T17:48:24.386Z,100133.03
2024-03-05T17:50:51.977Z,100140.69
2024-03-05T17:53:19.748Z,100140.69
2024-03-05T17:55:49.310Z,100139.84
2024-03-05T17:58:19.738Z,100140.59
2024-03-05T18:00:48.202Z,100137.12
2024-03-05T18:03:16.494Z,100141.44
2024-03-05T18:05:44.291Z,100146.88
2024-03-05T18:08:11.956Z,100142.19
2024-03-05T18:10:40.910Z,100151.84
2024-03-05T18:13:08.731Z,100148.28
2024-03-05T18:15:36.469Z,100150.75
2024-03-05T18:18:07.400Z,100154.75
2024-03-05T18:20:36.502Z,100157.31
2024-03-05T18:23:06.104Z,100152.47
2024-03-05T18:25:35.839Z,100153.19
2024-03-05T18:28:05.528Z,100160.91
2024-03-05T18:30:38.550Z,100159.72
2024-03-05T18:33:08.733Z,100159.97
2024-03-05T18:35:38.907Z,100163.28
2024-03-05T18:38:20.067Z,100167.50
2024-03-05T18:40:57.922Z,100161.06
2024-03-05T18:43:28.425Z,100165.28
2024-03-05T18:45:57.158Z,100175.50
2024-03-05T18:48:25.166Z,100174.50
2024-03-05T18:50:52.802Z,100169.13
2024-03-05T18:53:26.026Z,100164.97
2024-03-05T18:55:59.570Z,100168.12
2024-03-05T18:58:27.623Z,100176.53
2024-03-05T19:00:55.387Z,100173.00
2024-03-05T19:03:23.373Z,100174.00
2024-03-05T19:05:51.386Z,100173.84
2024-03-05T19:08:23.116Z,100184.44
2024-03-05T19:10:52.056Z,100180.44
2024-03-05T19:13:20.182Z,100182.41
2024-03-05T19:15:48.550Z,100177.31
2024-03-05T19:18:17.381Z,100185.13
2024-03-05T19:20:45.569Z,100182.22
2024-03-05T19:23:13.736Z,100185.56
2024-03-05T19:25:41.948Z,100184.53
2024-03-05T19:28:10.142Z,100189.97
2024-03-05T19:30:38.017Z,100186.03
2024-03-05T19:33:06.360Z,100196.56
2024-03-05T19:35:33.985Z,100186.16
2024-03-05T19:38:01.650Z,100191.41
2024-03-05T19:40:29.679Z,100190.03
2024-03-05T19:42:58.558Z,100187.06
2024-03-05T19:45:30.608Z,100190.94
2024-03-05T19:47:59.394Z,100188.00
2024-03-05T19:50:29.841Z,100178.66
2024-03-05T19:52:57.829Z,100176.44
2024-03-05T19:55:26.116Z,100183.09
2024-03-05T19:57:54.955Z,100185.22
2024-03-05T20:00:26.617Z,100184.69
2024-03-05T20:02:55.538Z,100182.75
2024-03-05T20:05:24.139Z,100189.25
2024-03-05T20:07:53.407Z,100193.81
2024-03-05T20:10:22.638Z,100189.06
2024-03-05T20:12:50.701Z,100187.50
2024-03-05T20:15:20.704Z,100194.84
2024-03-05T20:17:48.876Z,100195.88
2024-03-05T20:20:18.338Z,100189.22
2024-03-05T20:22:48.478Z,100191.75
2024-03-05T20:25:26.640Z,100193.94
2024-03-05T20:27:55.347Z,100199.19
2024-03-05T20:30:24.155Z,100194.50
2024-03-05T20:32:52.753Z,100205.88
2024-03-05T20:35:21.457Z,100202.72
2024-03-05T20:37:51.729Z,100201.09
2024-03-05T20:40:21.548Z,100198.53
2024-03-05T20:42:49.969Z,100196.91
2024-03-05T20:45:18.289Z,100203.25
2024-03-05T20:47:47.522Z,100200.84
2024-03-05T20:50:18.999Z,100205.31
2024-03-05T20:52:46.624Z,100199.53
2024-03-05T20:55:15.420Z,100200.50
2024-03-05T20:57:46.966Z,100206.25
2024-03-05T21:00:20.051Z,100207.84
2024-03-05T21:02:51.049Z,100209.41
2024-03-05T21:05:20.320Z,100216.78
2024-03-05T21:07:54.656Z,100198.47
2024-03-05T21:10:22.643Z,100208.28
2024-03-05T21:12:51.309Z,100204.41
2024-03-05T21:15:21.465Z,100210.28
2024-03-05T21:17:49.234Z,100210.53
2024-03-05T21:20:17.609Z,100203.47
2024-03-05T21:22:45.409Z,100209.69
2024-03-05T21:25:13.477Z,100203.69
2024-03-05T21:27:59.733Z,100199.16
2024-03-05T21:30:28.333Z,100205.47
2024-03-05T21:32:56.374Z,100196.09
2024-03-05T21:35:25.161Z,100197.03
2024-03-05T21:37:53.009Z,100210.06
2024-03-05T21:40:20.631Z,100210.50
2024-03-05T21:42:48.200Z,100206.31
2024-03-05T21:45:16.650Z,100200.22
2024-03-05T21:47:44.979Z,100217.16
2024-03-05T21:50:12.936Z,100212.00
2024-03-05T21:52:40.794Z,100214.13
2024-03-05T21:55:08.509Z,100217.47
2024-03-05T21:57:40.134Z,100213.91
2024-03-05T22:00:12.847Z,100228.22
2024-03-05T22:02:42.586Z,100223.06
2024-03-05T22:05:11.446Z,100215.94
2024-03-05T22:07:39.050Z,100214.69
2024-03-05T22:10:07.639Z,100222.97
2024-03-05T22:12:38.215Z,100223.91
2024-03-05T22:15:07.409Z,100230.00
2024-03-05T22:17:36.474Z,100226.09
2024-03-05T22:20:06.296Z,100226.22
2024-03-05T22:22:33.971Z,100222.88
2024-03-05T22:25:05.779Z,100230.47
2024-03-05T22:27:34.128Z,100222.97
2024-03-05T22:30:02.605Z,100223.87
2024-03-05T22:32:30.104Z,100220.69
2024-03-05T22:34:59.044Z,100226.69
2024-03-05T22:37:27.239Z,100224.28
2024-03-05T22:39:54.999Z,100234.03
2024-03-05T22:42:22.970Z,100219.44
2024-03-05T22:44:50.739Z,100228.28
2024-03-05T22:47:19.277Z,100231.91
2024-03-05T22:49:49.114Z,100227.00
2024-03-05T22:52:17.159Z,100236.56
2024-03-05T22:54:44.658Z,100229.75
2024-03-05T22:57:12.604Z,100227.31
2024-03-05T22:59:40.324Z,100232.56
2024-03-05T23:02:07.972Z,100232.09
2024-03-05T23:04:35.957Z,100238.91
2024-03-05T23:07:03.824Z,100233.66
2024-03-05T23:09:31.344Z,100232.16
2024-03-05T23:11:58.898Z,100234.19
2024-03-05T23:14:26.725Z,100230.84
2024-03-05T23:16:54.218Z,100238.84
2024-03-05T23:19:21.863Z,100241.47
2024-03-05T23:21:49.600Z,100245.13
2024-03-05T23:24:17.121Z,100248.06
2024-03-05T23:26:45.233Z,100245.34
2024-03-05T23:29:13.169Z,100248.22
2024-03-05T23:31:40.730Z,100250.22
2024-03-05T23:34:08.670Z,100248.09
2024-03-05T23:36:36.525Z,100254.50
2024-03-05T23:39:04.045Z,100248.66
2024-03-05T23:41:32.475Z,100245.06
2024-03-05T23:44:00.768Z,100246.28
2024-03-05T23:46:28.402Z,100247.84
2024-03-05T23:48:55.982Z,100248.81
2024-03-05T23:51:23.786Z,100241.13
2024-03-05T23:53:51.258Z,100243.22
2024-03-05T23:56:19.005Z,100243.03
2024-03-05T23:58:46.854Z,100254.37
